Flight Track Log - Related Links

Times and Time Zones

All times are in EDT time to prevent confusion due to time zone crossing. See the AWE1940 flight status page for this flight to view local times or setup timezone preferences in your user account.

Time Position Orientation Groundspeed Altitude Reporting Facility
EDT Latitude Longitude Course Direction KTS MPH feet Rate Location/Type
Wed 10:33:10 PM 35.1928 -80.9356 72° East 165 190 1,800  Level Atlanta Center
Wed 10:34:23 PM 35.1317 -80.9075 159° South 232 267 4,300 1,974 Climbing Atlanta Center
Wed 10:35:00 PM 35.1516 -80.5990 29° Northeast  Level FlightAware Approximate
Wed 10:35:42 PM 35.0978 -80.8047 112° Southeast 323 372 6,800  Level Atlanta Center
Wed 10:36:00 PM 35.2604 -80.5235 30° Northeast  Level FlightAware Approximate
Wed 10:36:29 PM 35.1356 -80.7319 58° Northeast 339 390 9,200  Level Atlanta Center
Wed 10:37:00 PM 35.3425 -80.4319 72° East  Level FlightAware Approximate
Wed 10:37:29 PM 35.1869 -80.6308 58° Northeast 339 390 11,300  Level Atlanta Center
Wed 10:38:00 PM 35.3810 -80.2859 72° East  Level FlightAware Approximate
Wed 10:38:29 PM 35.2425 -80.5269 57° Northeast 357 411 13,600  Level Atlanta Center
Wed 10:39:29 PM 35.2936 -80.4228 59° Northeast 373 429 15,300 1,884 Climbing Atlanta Center
Wed 10:41:56 PM 35.4431 -80.1022 60° Northeast 421 484 20,100 1,884 Climbing Washington Center
Wed 10:42:56 PM 35.4792 -79.9714 71° East 437 503 21,800 1,700 Climbing Washington Center
Wed 10:43:56 PM 35.5139 -79.8203 74° East 442 509 23,500 1,550 Climbing Washington Center
Wed 10:44:56 PM 35.5544 -79.6692 72° East 457 526 24,900 1,450 Climbing Washington Center
Wed 10:45:56 PM 35.6000 -79.4953 72° East 475 547 26,400 1,050 Climbing Washington Center
Wed 10:46:56 PM 35.6439 -79.3594 68° East 475 547 27,000 300 Climbing Washington Center
Wed 10:47:56 PM 35.7050 -79.2064 64° Northeast 475 547 27,000  Level Washington Center
Wed 10:48:56 PM 35.7678 -79.0581 62° Northeast 480 552 27,000  Level Washington Center
Wed 10:49:56 PM 35.8331 -78.8919 64° Northeast 485 558 27,000 350 Level Washington Center
Wed 10:50:56 PM 35.8956 -78.7406 63° Northeast 485 558 27,700 950 Climbing Washington Center
Wed 10:51:56 PM 35.9683 -78.5947 58° Northeast 485 558 28,900 1,100 Climbing Washington Center
Wed 10:52:56 PM 36.0408 -78.4433 59° Northeast 496 571 29,900 1,100 Climbing Washington Center
Wed 10:53:56 PM 36.1131 -78.2942 59° Northeast 502 578 31,100 1,200 Climbing Washington Center
Wed 10:54:56 PM 36.1853 -78.1422 59° Northeast 502 578 32,300 1,250 Climbing Washington Center
Wed 10:55:56 PM 36.2572 -77.9928 59° Northeast 502 578 33,600 1,150 Climbing Washington Center
Wed 10:56:56 PM 36.3289 -77.8453 59° Northeast 502 578 34,600 1,050 Climbing Washington Center
Wed 10:57:56 PM 36.3983 -77.6925 61° Northeast 502 578 35,700 1,000 Climbing Washington Center
Wed 10:58:56 PM 36.4592 -77.5597 60° Northeast 496 571 36,600 650 Climbing Washington Center
Wed 10:59:56 PM 36.5283 -77.4117 60° Northeast 491 565 37,000 200 Climbing Washington Center
Wed 11:00:56 PM 36.5972 -77.2658 59° Northeast 491 565 37,000  Level Washington Center
Wed 11:01:56 PM 36.6658 -77.1144 60° Northeast 491 565 37,000  Level Washington Center
Wed 11:02:56 PM 36.7508 -76.9839 51° Northeast 491 565 37,000  Level Washington Center
Wed 11:03:56 PM 36.8711 -76.8719 37° Northeast 478 550 37,000  Level Washington Center
Wed 11:04:56 PM 36.9786 -76.7722 37° Northeast 478 550 37,000  Level Washington Center
Wed 11:05:56 PM 37.0878 -76.6750 35° Northeast 478 550 37,000  Level Washington Center
Wed 11:06:56 PM 37.1953 -76.5747 37° Northeast 478 550 37,000  Level Washington Center
Wed 11:07:56 PM 37.3044 -76.4744 36° Northeast 483 556 37,000  Level Washington Center
Wed 11:08:56 PM 37.4136 -76.3789 35° Northeast 483 556 37,000  Level Washington Center
Wed 11:09:56 PM 37.5267 -76.2911 32° Northeast 483 556 37,000  Level Washington Center
Wed 11:10:56 PM 37.6336 -76.2158 29° Northeast 478 550 37,000  Level Washington Center
Wed 11:11:56 PM 37.7528 -76.1408 26° Northeast 478 550 37,000  Level Washington Center
Wed 11:12:56 PM 37.8678 -76.0494 32° Northeast 472 543 37,000  Level Washington Center
Wed 11:13:56 PM 37.9808 -75.9658 30° Northeast 472 543 37,000  Level Washington Center
Wed 11:14:56 PM 38.0997 -75.8794 30° Northeast 478 550 37,000  Level Washington Center
Wed 11:15:56 PM 38.2147 -75.7978 29° Northeast 478 550 37,000  Level Washington Center
Wed 11:16:56 PM 38.3378 -75.7133 28° Northeast 485 558 37,000  Level Washington Center
Wed 11:17:56 PM 38.4547 -75.6314 29° Northeast 485 558 37,000  Level Washington Center
Wed 11:18:56 PM 38.5714 -75.5439 30° Northeast 485 558 37,000 -50 Level Washington Center
Wed 11:19:56 PM 38.6900 -75.4586 29° Northeast 480 552 36,900 -50 Descending Washington Center
Wed 11:20:56 PM 38.8089 -75.3758 28° Northeast 480 552 36,900  Level Washington Center
Wed 11:21:56 PM 38.9253 -75.2900 30° Northeast 480 552 36,900  Level Washington Center
Wed 11:22:56 PM 39.0419 -75.1986 31° Northeast 480 552 36,900 50 Level Washington Center
Wed 11:23:56 PM 39.1603 -75.1125 29° Northeast 485 558 37,000 50 Climbing Washington Center
Wed 11:24:56 PM 39.2786 -75.0231 30° Northeast 485 558 37,000  Level Washington Center
Wed 11:25:56 PM 39.3950 -74.9364 30° Northeast 480 552 37,000  Level Washington Center
Wed 11:26:56 PM 39.5133 -74.8464 30° Northeast 480 552 37,000 -255 Level Washington Center
Wed 11:29:04 PM 39.7725 -74.6494 30° Northeast 487 560 36,200 -545 Descending New York Center
Wed 11:30:03 PM 39.8814 -74.5689 30° Northeast 492 566 35,300 -650 Descending New York Center
Wed 11:31:04 PM 40.0011 -74.4750 31° Northeast 498 573 34,900 -397 Descending New York Center
Wed 11:32:04 PM 40.1208 -74.3839 30° Northeast 498 573 34,500 -694 Descending New York Center
Wed 11:33:05 PM 40.2425 -74.2922 30° Northeast 498 573 33,500 -1,008 Descending New York Center
Wed 11:34:03 PM 40.3639 -74.1978 31° Northeast 503 579 32,500 -1,831 Descending New York Center
Wed 11:35:03 PM 40.4833 -74.1056 30° Northeast 508 585 29,900 -2,579 Descending New York Center
Wed 11:36:04 PM 40.6047 -74.0075 32° Northeast 508 585 27,300 -2,380 Descending New York Center
Wed 11:37:04 PM 40.7219 -73.9172 30° Northeast 496 571 25,100 -1,313 Descending New York Center
Wed 11:39:16 PM 40.9389 -73.6847 39° Northeast 458 527 23,100 -656 Descending Boston Center
Wed 11:40:16 PM 41.0317 -73.5711 43° Northeast 453 521 23,000 -450 Descending Boston Center
Wed 11:41:16 PM 41.1306 -73.4681 38° Northeast 448 516 22,200 -850 Descending Boston Center
Wed 11:42:16 PM 41.2417 -73.4089 22° Northeast 435 501 21,300 -1,250 Descending Boston Center
Wed 11:43:16 PM 41.3547 -73.3553 20° North 422 486 19,700 -1,150 Descending Boston Center
Wed 11:44:16 PM 41.4714 -73.3461 North 388 447 19,000 -350 Descending Boston Center
Wed 11:45:16 PM 41.5669 -73.3722 348° North 381 438 19,000 -500 Level Boston Center
Wed 11:46:16 PM 41.6814 -73.4075 347° North 389 448 18,000 -1,600 Descending Boston Center
Wed 11:47:16 PM 41.7894 -73.4369 349° North 389 448 15,800 -2,000 Descending Boston Center
Wed 11:47:52 PM 41.8539 -73.4575 347° North 384 442 14,800 -1,400 Descending Boston Center
Wed 11:48:16 PM 41.8894 -73.4636 353° North 384 442 14,400 -1,714 Descending Boston Center
Wed 11:48:34 PM 41.9225 -73.4725 349° North 375 432 13,600 -1,700 Descending Boston Center
Wed 11:49:16 PM 41.9892 -73.4903 349° North 363 418 12,700 -1,377 Descending Boston Center
Wed 11:49:35 PM 42.0203 -73.4992 348° North 353 406 12,200 -1,600 Descending Boston Center
Wed 11:50:16 PM 42.0806 -73.5225 344° North 352 405 11,100 -1,200 Descending Boston Center
Wed 11:50:35 PM 42.1117 -73.5258 355° North 337 388 11,000 -100 Descending Boston Center
Wed 11:51:16 PM 42.1575 -73.5322 354° North 346 398 11,000 -98 Level Boston Center
Wed 11:51:36 PM 42.2097 -73.5389 355° North 345 397 10,900 -600 Descending Boston Center
Wed 11:52:16 PM 42.2700 -73.5428 357° North 346 398 10,400 -1,100 Descending Boston Center
Wed 11:52:36 PM 42.2992 -73.5433 359° North 328 377 9,800 -1,500 Descending Boston Center
Wed 11:53:16 PM 42.3553 -73.5469 357° North 321 369 8,900 -1,377 Descending Boston Center
Wed 11:53:37 PM 42.3825 -73.5531 351° North 302 348 8,400 -1,300 Descending Boston Center
Wed 11:54:16 PM 42.4281 -73.5708 344° North 297 342 7,600 -1,377 Descending Boston Center
Wed 11:54:38 PM 42.4675 -73.5856 345° North 283 326 7,000 -1,500 Descending Boston Center
Wed 11:55:16 PM 42.5111 -73.5978 348° North 280 322 6,100 -1,333 Descending Boston Center
Wed 11:55:32 PM 42.5300 -73.6064 341° North 276 318 5,800 -1,558 Descending Boston Center
Wed 11:56:33 PM 42.6025 -73.6333 345° North 270 311 4,100 -1,377 Descending Boston Center
Wed 11:57:34 PM 42.6794 -73.6631 344° North 267 307 3,000 -545 Descending Boston Center
Wed 11:58:34 PM 42.7436 -73.6869 345° North 228 262 3,000  Level Boston Center
Wed 11:59:35 PM 42.8039 -73.7050 348° North 215 247 3,000  Level Boston Center
Thu 12:00:40 AM 42.8622 -73.7147 353° North 206 237 3,000 -496 Level Boston Center
Thu 12:01:36 AM 42.9100 -73.7214 354° North 179 206 2,000 -103 Descending Boston Center
Thu 12:02:37 AM 42.9503 -73.6742 41° Northeast 233 268 2,800 545 Climbing Boston Center
Thu 12:03:37 AM 42.9069 -73.6136 134° Southeast 214 246 3,100 149 Climbing Boston Center
Thu 12:04:38 AM 42.8594 -73.5786 152° Southeast 184 212 3,100  Level Boston Center
Thu 12:05:39 AM 42.8158 -73.5581 161° South 163 188 3,100  Level Boston Center
Thu 12:06:39 AM 42.7742 -73.5686 191° South 159 183 3,100 -99 Level Boston Center
Thu 12:07:40 AM 42.7528 -73.6164 239° Southwest 157 181 2,900 -545 Descending Boston Center
Thu 12:08:40 AM 42.7542 -73.6700 272° West 140 161 2,000 -793 Descending Boston Center
Thu 12:09:41 AM 42.7494 -73.7208 263° West 132 152 1,300 -689 Descending Boston Center

Login

Don't have an account? Register now (free) for customized features, flight alerts, and more!